createdAt,value
2023-01-27T00:00:15.099Z,100.00
2023-01-27T00:02:42.695Z,100.00
2023-01-27T00:05:11.265Z,100.00
2023-01-27T00:07:38.040Z,99.27
2023-01-27T00:10:06.011Z,98.80
2023-01-27T00:12:51.080Z,98.80
2023-01-27T00:15:17.621Z,98.99
2023-01-27T00:17:44.050Z,98.81
2023-01-27T00:20:11.194Z,98.84
2023-01-27T00:22:56.543Z,99.08
2023-01-27T00:25:22.977Z,99.50
2023-01-27T00:27:49.409Z,99.54
2023-01-27T00:30:15.929Z,99.73
2023-01-27T00:33:01.018Z,99.91
2023-01-27T00:35:27.429Z,100.00
2023-01-27T00:37:53.850Z,99.98
2023-01-27T00:40:20.386Z,99.36
2023-01-27T00:42:46.762Z,99.67
2023-01-27T00:45:31.864Z,99.46
2023-01-27T00:47:58.254Z,98.77
2023-01-27T00:50:24.677Z,98.71
2023-01-27T00:52:52.134Z,98.90
2023-01-27T00:55:18.697Z,97.81
2023-01-27T00:57:45.052Z,98.41
2023-01-27T01:00:12.215Z,98.77
2023-01-27T01:02:38.737Z,99.30
2023-01-27T01:05:05.560Z,99.68
2023-01-27T01:07:31.935Z,99.54
2023-01-27T01:09:58.295Z,99.25
2023-01-27T01:12:24.740Z,99.38
2023-01-27T01:14:51.094Z,99.24
2023-01-27T01:17:17.472Z,98.96
2023-01-27T01:19:43.843Z,99.04
2023-01-27T01:22:10.256Z,99.52
2023-01-27T01:24:36.669Z,98.83
2023-01-27T01:27:03.023Z,99.09
2023-01-27T01:29:29.473Z,99.11
2023-01-27T01:31:55.864Z,99.30
2023-01-27T01:34:22.245Z,99.18
2023-01-27T01:36:48.631Z,99.00
2023-01-27T01:39:14.986Z,99.10
2023-01-27T01:41:41.489Z,98.71
2023-01-27T01:44:25.524Z,98.80
2023-01-27T01:46:52.033Z,99.19
2023-01-27T01:49:23.617Z,99.31
2023-01-27T01:51:54.790Z,99.70
2023-01-27T01:54:28.439Z,99.56
2023-01-27T01:57:06.019Z,99.72
2023-01-27T01:59:38.882Z,99.71
2023-01-27T02:02:10.313Z,100.00
2023-01-27T02:04:40.563Z,100.00
2023-01-27T02:07:13.323Z,99.60
2023-01-27T02:09:39.712Z,100.00
2023-01-27T02:12:06.692Z,100.00
2023-01-27T02:14:33.565Z,100.00
2023-01-27T02:17:00.876Z,100.00
2023-01-27T02:19:51.715Z,100.00
2023-01-27T02:22:28.050Z,100.00
2023-01-27T02:25:06.117Z,99.91
2023-01-27T02:27:32.933Z,100.00
2023-01-27T02:29:59.339Z,99.59
2023-01-27T02:32:27.055Z,100.00
2023-01-27T02:34:56.672Z,100.00
2023-01-27T02:37:24.499Z,100.00
2023-01-27T02:39:52.825Z,100.00
2023-01-27T02:42:19.515Z,100.00
2023-01-27T02:44:45.869Z,100.00
2023-01-27T02:47:12.244Z,100.00
2023-01-27T02:49:38.659Z,100.00
2023-01-27T02:52:05.625Z,100.00
2023-01-27T02:54:32.037Z,100.00
2023-01-27T02:56:58.477Z,100.00
2023-01-27T02:59:25.206Z,100.00
2023-01-27T03:01:51.747Z,100.00
2023-01-27T03:04:18.132Z,100.00
2023-01-27T03:06:44.726Z,100.00
2023-01-27T03:09:11.178Z,100.00
2023-01-27T03:11:56.169Z,100.00
2023-01-27T03:14:22.580Z,100.00
2023-01-27T03:17:07.736Z,100.00
2023-01-27T03:19:34.177Z,100.00
2023-01-27T03:22:01.912Z,100.00
2023-01-27T03:24:28.352Z,99.98
2023-01-27T03:26:54.907Z,99.85
2023-01-27T03:29:39.860Z,100.00
2023-01-27T03:32:06.267Z,100.00
2023-01-27T03:34:32.658Z,99.65
2023-01-27T03:37:17.740Z,99.92
2023-01-27T03:40:02.630Z,99.00
2023-01-27T03:42:47.506Z,98.95
2023-01-27T03:45:32.781Z,99.01
2023-01-27T03:47:59.278Z,98.70
2023-01-27T03:50:37.144Z,98.76
2023-01-27T03:53:05.069Z,97.50
2023-01-27T03:55:32.926Z,97.00
2023-01-27T03:58:14.507Z,97.29
2023-01-27T04:00:41.264Z,96.19
2023-01-27T04:03:26.459Z,96.28
2023-01-27T04:06:12.772Z,95.19
2023-01-27T04:08:42.417Z,94.89
2023-01-27T04:11:27.483Z,93.11
2023-01-27T04:13:53.902Z,93.63
2023-01-27T04:16:20.276Z,93.71
2023-01-27T04:18:49.122Z,93.93
2023-01-27T04:21:16.091Z,94.28
2023-01-27T04:23:42.461Z,94.36
2023-01-27T04:26:08.832Z,94.51
2023-01-27T04:28:44.133Z,94.58
2023-01-27T04:31:11.051Z,94.40
2023-01-27T04:33:37.546Z,92.38
2023-01-27T04:36:04.227Z,93.21
2023-01-27T04:38:30.696Z,93.45
2023-01-27T04:40:57.041Z,93.04
2023-01-27T04:43:23.458Z,93.57
2023-01-27T04:45:49.916Z,93.61
2023-01-27T04:48:16.337Z,93.68
2023-01-27T04:50:42.872Z,93.12
2023-01-27T04:53:09.240Z,93.67
2023-01-27T04:55:35.648Z,93.56
2023-01-27T04:58:02.040Z,93.60
2023-01-27T05:00:28.385Z,93.77
2023-01-27T05:02:55.061Z,93.45
2023-01-27T05:05:21.485Z,93.16
2023-01-27T05:07:47.916Z,92.83
2023-01-27T05:10:14.343Z,92.66
2023-01-27T05:12:40.790Z,92.97
2023-01-27T05:15:07.849Z,93.12
2023-01-27T05:17:35.247Z,92.43
2023-01-27T05:20:01.659Z,92.39
2023-01-27T05:22:28.257Z,92.46
2023-01-27T05:24:54.621Z,92.98
2023-01-27T05:27:21.541Z,92.69
2023-01-27T05:29:47.901Z,93.07
2023-01-27T05:32:14.347Z,92.75
2023-01-27T05:34:40.830Z,93.05
2023-01-27T05:37:07.287Z,92.46
2023-01-27T05:39:33.655Z,92.66
2023-01-27T05:42:00.136Z,92.76
2023-01-27T05:44:26.536Z,92.35
2023-01-27T05:46:53.160Z,91.75
2023-01-27T05:49:19.610Z,91.76
2023-01-27T05:51:45.996Z,91.44
2023-01-27T05:54:12.425Z,91.55
2023-01-27T05:56:39.272Z,91.84
2023-01-27T05:59:06.309Z,91.80
2023-01-27T06:01:34.551Z,91.33
2023-01-27T06:04:01.486Z,90.96
2023-01-27T06:06:29.768Z,90.97
2023-01-27T06:08:56.511Z,90.67
2023-01-27T06:11:24.416Z,90.49
2023-01-27T06:13:52.518Z,90.97
2023-01-27T06:16:20.926Z,90.67
2023-01-27T06:18:48.444Z,90.74
2023-01-27T06:21:16.233Z,90.71
2023-01-27T06:23:42.847Z,89.96
2023-01-27T06:26:16.243Z,89.69
2023-01-27T06:28:42.929Z,89.30
2023-01-27T06:31:18.424Z,88.81
2023-01-27T06:33:44.927Z,88.42
2023-01-27T06:36:14.066Z,88.50
2023-01-27T06:38:40.536Z,88.52
2023-01-27T06:41:07.153Z,88.92
2023-01-27T06:43:33.789Z,88.86
2023-01-27T06:46:01.086Z,88.39
2023-01-27T06:48:28.360Z,87.64
2023-01-27T06:50:56.365Z,87.94
2023-01-27T06:53:23.927Z,87.73
2023-01-27T06:55:55.916Z,88.18
2023-01-27T06:58:22.360Z,87.38
2023-01-27T07:00:48.937Z,87.32
2023-01-27T07:03:18.186Z,87.10
2023-01-27T07:05:44.692Z,86.22
2023-01-27T07:08:11.911Z,87.01
2023-01-27T07:10:39.046Z,85.56
2023-01-27T07:13:06.429Z,86.67
2023-01-27T07:15:33.259Z,84.90
2023-01-27T07:18:03.222Z,86.01
2023-01-27T07:20:30.132Z,86.28
2023-01-27T07:23:00.846Z,86.33
2023-01-27T07:25:28.931Z,86.67
2023-01-27T07:27:58.094Z,85.85
2023-01-27T07:30:25.276Z,86.38
2023-01-27T07:32:52.372Z,86.85
2023-01-27T07:35:18.853Z,86.76
2023-01-27T07:37:45.353Z,86.67
2023-01-27T07:40:13.662Z,86.83
2023-01-27T07:42:41.054Z,87.25
2023-01-27T07:45:08.423Z,86.29
2023-01-27T07:47:34.966Z,87.09
2023-01-27T07:50:01.363Z,87.18
2023-01-27T07:52:27.713Z,86.86
2023-01-27T07:54:54.087Z,86.94
2023-01-27T07:57:20.424Z,86.98
2023-01-27T07:59:46.844Z,87.00
2023-01-27T08:02:13.282Z,87.23
2023-01-27T08:04:52.197Z,87.00
2023-01-27T08:07:19.536Z,87.18
2023-01-27T08:09:45.911Z,86.83
2023-01-27T08:12:12.360Z,87.33
2023-01-27T08:14:38.747Z,87.18
2023-01-27T08:17:05.164Z,87.43
2023-01-27T08:19:31.581Z,87.65
2023-01-27T08:21:57.967Z,87.47
2023-01-27T08:24:24.398Z,87.35
2023-01-27T08:26:50.866Z,87.52
2023-01-27T08:29:17.623Z,87.42
2023-01-27T08:31:44.200Z,86.68
2023-01-27T08:34:10.687Z,87.19
2023-01-27T08:36:37.121Z,87.37
2023-01-27T08:39:03.719Z,86.82
2023-01-27T08:41:30.127Z,87.13
2023-01-27T08:43:56.607Z,86.50
2023-01-27T08:46:23.105Z,86.81
2023-01-27T08:48:51.615Z,86.68
2023-01-27T08:51:18.065Z,86.85
2023-01-27T08:53:44.470Z,86.39
2023-01-27T08:56:13.647Z,86.81
2023-01-27T08:58:41.038Z,87.35
2023-01-27T09:01:08.203Z,87.72
2023-01-27T09:03:35.356Z,87.34
2023-01-27T09:06:02.207Z,85.99
2023-01-27T09:08:28.826Z,87.02
2023-01-27T09:10:57.650Z,86.92
2023-01-27T09:13:24.110Z,86.75
2023-01-27T09:15:53.858Z,86.76
2023-01-27T09:18:20.781Z,86.65
2023-01-27T09:20:47.240Z,86.94
2023-01-27T09:23:13.617Z,86.56
2023-01-27T09:25:40.263Z,87.63
2023-01-27T09:28:09.911Z,86.71
2023-01-27T09:30:36.437Z,87.10
2023-01-27T09:33:03.138Z,87.44
2023-01-27T09:35:36.212Z,87.47
2023-01-27T09:38:04.925Z,87.55
2023-01-27T09:40:35.997Z,88.36
2023-01-27T09:43:39.885Z,88.44
2023-01-27T09:46:36.535Z,89.33
2023-01-27T09:49:27.716Z,89.03
2023-01-27T09:52:03.053Z,88.95
2023-01-27T09:54:42.812Z,88.64
2023-01-27T09:57:21.348Z,88.33
2023-01-27T10:00:33.211Z,89.15
2023-01-27T10:03:29.286Z,88.53
2023-01-27T10:06:21.914Z,88.87
2023-01-27T10:08:54.196Z,89.07
2023-01-27T10:11:46.927Z,90.16
2023-01-27T10:14:19.284Z,90.44
2023-01-27T10:17:05.098Z,89.42
2023-01-27T10:19:46.184Z,89.93
2023-01-27T10:22:25.495Z,90.07
2023-01-27T10:25:08.567Z,89.74
2023-01-27T10:27:41.395Z,90.01
2023-01-27T10:30:16.060Z,89.79
2023-01-27T10:32:55.686Z,89.47
2023-01-27T10:36:06.513Z,89.58
2023-01-27T10:39:02.131Z,89.90
2023-01-27T10:41:56.347Z,89.30
2023-01-27T10:44:39.466Z,89.59
2023-01-27T10:47:17.544Z,90.17
2023-01-27T10:49:51.987Z,89.17
2023-01-27T10:52:24.149Z,89.78
2023-01-27T10:54:58.017Z,89.95
2023-01-27T10:57:37.741Z,89.21
2023-01-27T11:00:57.560Z,89.14
2023-01-27T11:03:08.662Z,89.82
2023-01-27T11:05:43.180Z,89.87
2023-01-27T11:08:17.502Z,89.30
2023-01-27T11:11:07.640Z,89.45
2023-01-27T11:13:35.041Z,90.04
2023-01-27T11:16:04.257Z,90.22
2023-01-27T11:18:33.913Z,90.94
2023-01-27T11:21:05.203Z,89.24
2023-01-27T11:23:35.556Z,89.63
2023-01-27T11:26:23.353Z,89.27
2023-01-27T11:29:18.054Z,89.08
2023-01-27T11:31:56.899Z,90.04
2023-01-27T11:34:34.246Z,88.93
2023-01-27T11:37:13.830Z,89.72
2023-01-27T11:39:40.291Z,89.54
2023-01-27T11:42:09.401Z,89.89
2023-01-27T11:44:36.531Z,88.50
2023-01-27T11:47:06.895Z,88.86
2023-01-27T11:49:46.413Z,89.37
2023-01-27T11:52:16.059Z,88.60
2023-01-27T11:54:52.401Z,88.87
2023-01-27T11:57:22.164Z,89.43
2023-01-27T11:59:53.067Z,88.62
2023-01-27T12:02:29.655Z,89.54
2023-01-27T12:05:02.305Z,89.40
2023-01-27T12:07:46.106Z,89.12
2023-01-27T12:10:23.294Z,89.04
2023-01-27T12:12:50.333Z,89.17
2023-01-27T12:15:18.120Z,87.45
2023-01-27T12:17:58.639Z,86.78
2023-01-27T12:20:37.255Z,87.05
2023-01-27T12:23:19.866Z,87.92
2023-01-27T12:25:52.409Z,87.53
2023-01-27T12:28:28.501Z,86.96
2023-01-27T12:31:03.112Z,87.55
2023-01-27T12:33:32.535Z,87.52
2023-01-27T12:36:01.191Z,87.69
2023-01-27T12:38:33.175Z,88.53
2023-01-27T12:41:03.910Z,88.76
2023-01-27T12:43:30.894Z,88.88
2023-01-27T12:46:25.751Z,88.64
2023-01-27T12:48:59.777Z,89.14
2023-01-27T12:51:54.567Z,87.61
2023-01-27T12:54:22.666Z,87.35
2023-01-27T12:56:51.288Z,88.13
2023-01-27T12:59:19.173Z,87.74
2023-01-27T13:01:59.054Z,87.96
2023-01-27T13:04:27.122Z,88.66
2023-01-27T13:07:02.516Z,88.74
2023-01-27T13:09:47.668Z,85.39
2023-01-27T13:12:21.891Z,87.79
2023-01-27T13:14:55.385Z,88.00
2023-01-27T13:17:26.904Z,88.26
2023-01-27T13:19:57.062Z,88.94
2023-01-27T13:22:26.556Z,88.49
2023-01-27T13:25:00.337Z,87.81
2023-01-27T13:27:37.647Z,87.01
2023-01-27T13:30:16.547Z,87.62
2023-01-27T13:32:47.583Z,87.41
2023-01-27T13:35:25.037Z,87.61
2023-01-27T13:38:06.349Z,87.39
2023-01-27T13:40:44.433Z,87.09
2023-01-27T13:43:19.863Z,86.25
2023-01-27T13:46:21.686Z,86.45
2023-01-27T13:48:55.937Z,86.30
2023-01-27T13:51:25.170Z,85.27
2023-01-27T13:54:02.131Z,83.85
2023-01-27T13:56:34.539Z,82.57
2023-01-27T13:59:31.878Z,83.70
2023-01-27T14:02:36.049Z,84.66
2023-01-27T14:05:22.108Z,85.48
2023-01-27T14:07:56.995Z,85.09
2023-01-27T14:10:26.354Z,84.91
2023-01-27T14:12:59.708Z,85.47
2023-01-27T14:15:36.549Z,85.27
2023-01-27T14:18:14.826Z,86.30
2023-01-27T14:21:09.468Z,86.96
2023-01-27T14:23:50.478Z,86.94
2023-01-27T14:26:32.980Z,86.26
2023-01-27T14:29:06.049Z,85.99
2023-01-27T14:32:01.852Z,85.40
2023-01-27T14:34:31.149Z,86.67
2023-01-27T14:37:16.350Z,86.79
2023-01-27T14:39:59.858Z,87.33
2023-01-27T14:43:05.655Z,87.72
2023-01-27T14:45:36.550Z,87.88
2023-01-27T14:48:30.466Z,87.83
2023-01-27T14:51:09.706Z,88.31
2023-01-27T14:54:32.783Z,88.50
2023-01-27T14:57:16.896Z,88.73
2023-01-27T15:00:05.259Z,88.68
2023-01-27T15:03:03.651Z,88.92
2023-01-27T15:05:48.464Z,88.37
2023-01-27T15:08:43.038Z,88.37
2023-01-27T15:11:57.369Z,88.52
2023-01-27T15:14:43.432Z,88.53
2023-01-27T15:17:32.424Z,89.28
2023-01-27T15:20:19.777Z,89.03
2023-01-27T15:22:58.109Z,88.60
2023-01-27T15:25:43.699Z,89.03
2023-01-27T15:28:14.874Z,88.89
2023-01-27T15:31:09.560Z,87.74
2023-01-27T15:33:48.399Z,88.91
2023-01-27T15:36:26.940Z,89.37
2023-01-27T15:39:08.724Z,88.55
2023-01-27T15:41:53.821Z,88.96
2023-01-27T15:44:32.099Z,88.56
2023-01-27T15:47:17.300Z,89.13
2023-01-27T15:49:48.242Z,89.42
2023-01-27T15:52:20.694Z,89.39
2023-01-27T15:54:51.250Z,89.67
2023-01-27T15:57:29.757Z,89.19
2023-01-27T16:00:04.153Z,89.25
2023-01-27T16:02:32.929Z,89.45
2023-01-27T16:05:20.809Z,89.84
2023-01-27T16:07:53.913Z,90.18
2023-01-27T16:10:24.273Z,89.49
2023-01-27T16:13:10.809Z,89.44
2023-01-27T16:15:38.876Z,89.93
2023-01-27T16:18:08.191Z,89.40
2023-01-27T16:20:37.573Z,89.33
2023-01-27T16:23:30.305Z,89.63
2023-01-27T16:26:21.771Z,89.61
2023-01-27T16:28:56.401Z,89.89
2023-01-27T16:31:28.106Z,89.71
2023-01-27T16:33:58.534Z,89.80
2023-01-27T16:36:31.204Z,89.83
2023-01-27T16:39:03.125Z,89.70
2023-01-27T16:41:36.082Z,90.41
2023-01-27T16:44:13.860Z,90.29
2023-01-27T16:46:49.690Z,90.51
2023-01-27T16:49:24.377Z,90.63
2023-01-27T16:51:56.142Z,89.90
2023-01-27T16:54:31.487Z,90.22
2023-01-27T16:56:58.137Z,90.65
2023-01-27T16:59:27.212Z,90.90
2023-01-27T17:02:03.644Z,90.80
2023-01-27T17:04:34.049Z,90.70
2023-01-27T17:07:06.856Z,90.13
2023-01-27T17:09:40.631Z,89.83
2023-01-27T17:12:25.982Z,89.70
2023-01-27T17:14:53.542Z,89.71
2023-01-27T17:17:22.959Z,89.83
2023-01-27T17:19:51.809Z,89.34
2023-01-27T17:22:22.933Z,90.05
2023-01-27T17:24:56.386Z,89.15
2023-01-27T17:27:29.999Z,89.41
2023-01-27T17:30:12.153Z,90.13
2023-01-27T17:32:42.013Z,89.86
2023-01-27T17:35:25.350Z,89.86
2023-01-27T17:37:51.834Z,89.60
2023-01-27T17:40:21.929Z,88.62
2023-01-27T17:42:49.461Z,88.92
2023-01-27T17:45:26.550Z,90.03
2023-01-27T17:47:53.899Z,89.37
2023-01-27T17:50:23.066Z,88.64
2023-01-27T17:52:53.043Z,88.61
2023-01-27T17:55:25.368Z,88.69
2023-01-27T17:58:01.728Z,88.38
2023-01-27T18:00:33.433Z,87.60
2023-01-27T18:03:09.541Z,87.02
2023-01-27T18:05:37.781Z,86.79
2023-01-27T18:08:05.125Z,86.32
2023-01-27T18:10:34.530Z,86.16
2023-01-27T18:13:27.251Z,87.53
2023-01-27T18:16:17.389Z,87.81
2023-01-27T18:18:44.998Z,88.22
2023-01-27T18:21:21.547Z,87.69
2023-01-27T18:23:55.533Z,87.90
2023-01-27T18:26:26.886Z,88.90
2023-01-27T18:28:58.605Z,89.44
2023-01-27T18:31:29.708Z,89.41
2023-01-27T18:33:58.639Z,89.21
2023-01-27T18:36:29.590Z,88.75
2023-01-27T18:38:56.030Z,88.58
2023-01-27T18:41:26.479Z,88.51
2023-01-27T18:43:53.639Z,88.33
2023-01-27T18:46:20.168Z,88.38
2023-01-27T18:48:46.717Z,88.66
2023-01-27T18:51:17.258Z,88.79
2023-01-27T18:53:44.464Z,89.09
2023-01-27T18:56:11.122Z,89.36
2023-01-27T18:58:38.682Z,89.24
2023-01-27T19:01:18.848Z,89.52
2023-01-27T19:03:45.217Z,89.91
2023-01-27T19:06:15.782Z,89.74
2023-01-27T19:08:42.640Z,89.91
2023-01-27T19:11:14.754Z,89.49
2023-01-27T19:13:42.816Z,90.22
2023-01-27T19:16:13.865Z,90.00
2023-01-27T19:18:42.069Z,89.59
2023-01-27T19:21:14.076Z,89.92
2023-01-27T19:23:44.388Z,89.76
2023-01-27T19:26:17.392Z,89.97
2023-01-27T19:28:45.351Z,89.89
2023-01-27T19:31:12.005Z,90.02
2023-01-27T19:33:38.909Z,90.10
2023-01-27T19:36:08.377Z,90.45
2023-01-27T19:38:34.806Z,90.03
2023-01-27T19:41:01.147Z,90.37
2023-01-27T19:43:27.528Z,90.11
2023-01-27T19:45:54.009Z,89.72
2023-01-27T19:48:24.554Z,89.78
2023-01-27T19:50:52.007Z,89.99
2023-01-27T19:53:19.544Z,89.63
2023-01-27T19:55:49.731Z,90.00
2023-01-27T19:58:23.087Z,90.19
2023-01-27T20:00:49.522Z,90.27
2023-01-27T20:03:16.089Z,90.22
2023-01-27T20:05:43.029Z,90.25
2023-01-27T20:08:15.098Z,90.18
2023-01-27T20:10:42.165Z,89.83
2023-01-27T20:13:13.916Z,89.96
2023-01-27T20:15:41.140Z,89.98
2023-01-27T20:18:09.381Z,90.15
2023-01-27T20:20:35.747Z,89.71
2023-01-27T20:23:02.203Z,89.71
2023-01-27T20:25:28.673Z,90.10
2023-01-27T20:27:58.751Z,89.55
2023-01-27T20:30:32.266Z,89.95
2023-01-27T20:33:00.123Z,89.68
2023-01-27T20:35:27.631Z,89.92
2023-01-27T20:37:54.744Z,90.28
2023-01-27T20:40:27.595Z,90.28
2023-01-27T20:42:54.392Z,90.33
2023-01-27T20:45:22.586Z,90.39
2023-01-27T20:47:50.435Z,90.79
2023-01-27T20:50:17.341Z,90.52
2023-01-27T20:52:43.786Z,90.89
2023-01-27T20:55:10.212Z,90.91
2023-01-27T20:57:36.598Z,90.89
2023-01-27T21:00:03.418Z,90.80
2023-01-27T21:02:30.547Z,90.79
2023-01-27T21:04:57.091Z,90.04
2023-01-27T21:07:24.547Z,90.01
2023-01-27T21:09:53.348Z,89.72
2023-01-27T21:12:21.206Z,89.86
2023-01-27T21:14:47.613Z,89.87
2023-01-27T21:17:14.648Z,89.86
2023-01-27T21:19:41.127Z,90.41
2023-01-27T21:22:07.519Z,90.19
2023-01-27T21:24:35.418Z,90.46
2023-01-27T21:27:01.825Z,90.79
2023-01-27T21:29:28.261Z,90.91
2023-01-27T21:31:54.754Z,90.78
2023-01-27T21:34:21.711Z,91.01
2023-01-27T21:36:48.319Z,90.76
2023-01-27T21:39:14.727Z,91.21
2023-01-27T21:41:53.051Z,90.34
2023-01-27T21:44:43.249Z,90.73
2023-01-27T21:47:15.375Z,91.15
2023-01-27T21:50:01.580Z,90.91
2023-01-27T21:52:39.786Z,90.79
2023-01-27T21:55:08.457Z,90.91
2023-01-27T21:57:35.385Z,90.85
2023-01-27T22:00:02.064Z,90.81
2023-01-27T22:02:29.484Z,91.16
2023-01-27T22:04:56.021Z,91.53
2023-01-27T22:07:22.438Z,91.69
2023-01-27T22:09:48.910Z,92.17
2023-01-27T22:12:16.234Z,91.81
2023-01-27T22:14:43.703Z,92.23
2023-01-27T22:17:10.611Z,92.44
2023-01-27T22:19:39.041Z,92.36
2023-01-27T22:22:07.989Z,91.81
2023-01-27T22:24:34.557Z,91.39
2023-01-27T22:27:01.117Z,91.57
2023-01-27T22:29:27.544Z,91.55
2023-01-27T22:31:54.076Z,91.37
2023-01-27T22:34:20.490Z,91.34
2023-01-27T22:36:49.574Z,91.62
2023-01-27T22:39:16.967Z,91.35
2023-01-27T22:41:44.532Z,91.48
2023-01-27T22:44:13.175Z,91.49
2023-01-27T22:46:41.620Z,90.85
2023-01-27T22:49:09.247Z,90.72
2023-01-27T22:51:36.054Z,90.56
2023-01-27T22:54:02.502Z,90.26
2023-01-27T22:56:29.276Z,90.37
2023-01-27T22:58:55.666Z,90.70
2023-01-27T23:01:22.652Z,90.94
2023-01-27T23:03:49.087Z,90.67
2023-01-27T23:06:15.525Z,91.07
2023-01-27T23:08:41.889Z,90.84
2023-01-27T23:11:08.599Z,91.25
2023-01-27T23:13:35.445Z,90.92
2023-01-27T23:16:02.239Z,90.98
2023-01-27T23:18:28.797Z,90.72
2023-01-27T23:21:06.357Z,90.57
2023-01-27T23:23:34.066Z,90.76
2023-01-27T23:26:00.509Z,90.40
2023-01-27T23:28:27.287Z,90.53
2023-01-27T23:30:53.889Z,90.03
2023-01-27T23:33:20.655Z,90.02
2023-01-27T23:35:47.116Z,90.07
2023-01-27T23:38:30.233Z,89.79
2023-01-27T23:41:03.292Z,89.85
2023-01-27T23:43:32.587Z,90.04
2023-01-27T23:45:59.397Z,89.97
2023-01-27T23:48:26.513Z,89.71
2023-01-27T23:50:52.937Z,89.85
2023-01-27T23:53:20.374Z,89.67
2023-01-27T23:55:58.312Z,89.42
2023-01-27T23:58:31.722Z,88.96
